createdAt,value
2023-01-29T00:00:10.367Z,6.70
2023-01-29T00:02:41.017Z,7.00
2023-01-29T00:05:26.076Z,9.13
2023-01-29T00:07:56.399Z,4.95
2023-01-29T00:10:25.531Z,6.32
2023-01-29T00:12:53.170Z,6.97
2023-01-29T00:15:20.887Z,8.13
2023-01-29T00:17:48.553Z,5.80
2023-01-29T00:20:16.712Z,6.57
2023-01-29T00:22:44.609Z,6.13
2023-01-29T00:25:12.189Z,11.68
2023-01-29T00:27:39.778Z,5.88
2023-01-29T00:30:16.555Z,6.18
2023-01-29T00:32:47.301Z,4.70
2023-01-29T00:35:18.000Z,8.32
2023-01-29T00:37:45.722Z,6.32
2023-01-29T00:40:15.957Z,5.40
2023-01-29T00:43:05.122Z,9.43
2023-01-29T00:45:33.341Z,8.07
2023-01-29T00:48:00.924Z,7.78
2023-01-29T00:50:29.483Z,6.82
2023-01-29T00:52:57.324Z,6.53
2023-01-29T00:55:25.137Z,7.50
2023-01-29T00:57:52.671Z,6.20
2023-01-29T01:00:20.837Z,10.48
2023-01-29T01:03:07.115Z,6.15
2023-01-29T01:05:35.213Z,9.77
2023-01-29T01:08:04.308Z,6.78
2023-01-29T01:10:33.649Z,10.40
2023-01-29T01:13:06.654Z,7.55
2023-01-29T01:15:36.975Z,7.78
2023-01-29T01:18:05.201Z,9.90
2023-01-29T01:20:35.320Z,8.00
2023-01-29T01:23:03.666Z,6.68
2023-01-29T01:25:31.342Z,7.35
2023-01-29T01:28:02.883Z,7.88
2023-01-29T01:30:30.546Z,6.07
2023-01-29T01:32:59.490Z,5.43
2023-01-29T01:35:27.071Z,6.20
2023-01-29T01:37:54.764Z,4.60
2023-01-29T01:40:24.684Z,5.30
2023-01-29T01:42:57.846Z,3.85
2023-01-29T01:45:34.331Z,7.25
2023-01-29T01:48:16.510Z,6.72
2023-01-29T01:50:51.155Z,5.53
2023-01-29T01:53:48.314Z,7.53
2023-01-29T01:56:24.661Z,5.38
2023-01-29T01:58:56.599Z,7.97
2023-01-29T02:01:28.079Z,4.72
2023-01-29T02:04:23.172Z,4.53
2023-01-29T02:07:11.179Z,6.13
2023-01-29T02:09:46.461Z,5.15
2023-01-29T02:12:17.479Z,5.57
2023-01-29T02:14:45.543Z,4.53
2023-01-29T02:17:15.733Z,4.05
2023-01-29T02:20:16.899Z,4.55
2023-01-29T02:23:15.115Z,6.82
2023-01-29T02:26:13.430Z,6.18
2023-01-29T02:29:18.733Z,6.07
2023-01-29T02:31:59.235Z,4.22
2023-01-29T02:35:07.151Z,8.93
2023-01-29T02:37:59.451Z,8.27
2023-01-29T02:40:34.801Z,5.63
2023-01-29T02:43:06.621Z,6.88
2023-01-29T02:45:51.628Z,5.15
2023-01-29T02:48:23.034Z,10.50
2023-01-29T02:51:04.369Z,9.88
2023-01-29T02:53:45.985Z,7.70
2023-01-29T02:56:21.691Z,8.98
2023-01-29T02:58:57.436Z,7.90
2023-01-29T03:01:33.992Z,10.07
2023-01-29T03:04:13.571Z,7.93
2023-01-29T03:06:50.675Z,10.32
2023-01-29T03:09:37.624Z,11.25
2023-01-29T03:12:33.682Z,8.15
2023-01-29T03:15:16.161Z,6.53
2023-01-29T03:18:00.222Z,7.82
2023-01-29T03:20:33.978Z,9.85
2023-01-29T03:23:09.150Z,7.35
2023-01-29T03:25:59.364Z,6.05
2023-01-29T03:28:49.471Z,7.95
2023-01-29T03:31:36.983Z,6.80
2023-01-29T03:34:28.475Z,8.30
2023-01-29T03:37:01.642Z,7.78
2023-01-29T03:39:30.550Z,5.85
2023-01-29T03:42:17.702Z,10.75
2023-01-29T03:45:16.123Z,8.55
2023-01-29T03:47:47.933Z,8.15
2023-01-29T03:50:39.463Z,11.25
2023-01-29T03:53:09.931Z,9.43
2023-01-29T03:55:46.579Z,8.45
2023-01-29T03:58:32.230Z,6.85
2023-01-29T04:01:09.159Z,8.35
2023-01-29T04:03:46.980Z,11.40
2023-01-29T04:06:20.816Z,7.55
2023-01-29T04:09:10.113Z,6.72
2023-01-29T04:11:47.852Z,7.57
2023-01-29T04:14:17.695Z,11.02
2023-01-29T04:16:51.577Z,7.63
2023-01-29T04:19:31.833Z,8.68
2023-01-29T04:22:12.997Z,10.43
2023-01-29T04:24:41.894Z,7.50
2023-01-29T04:27:41.606Z,5.78
2023-01-29T04:30:48.352Z,9.80
2023-01-29T04:33:40.852Z,8.15
2023-01-29T04:37:04.531Z,7.60
2023-01-29T04:39:35.428Z,4.90
2023-01-29T04:42:24.408Z,4.57
2023-01-29T04:45:12.244Z,5.03
2023-01-29T04:48:03.104Z,5.65
2023-01-29T04:50:46.647Z,4.53
2023-01-29T04:53:36.867Z,6.18
2023-01-29T04:56:11.159Z,6.20
2023-01-29T04:58:44.595Z,6.78
2023-01-29T05:01:16.250Z,14.85
2023-01-29T05:03:48.271Z,7.47
2023-01-29T05:06:18.294Z,7.15
2023-01-29T05:08:47.648Z,7.78
2023-01-29T05:11:15.591Z,6.32
2023-01-29T05:13:43.575Z,7.32
2023-01-29T05:16:20.746Z,4.95
2023-01-29T05:18:48.691Z,7.10
2023-01-29T05:21:16.292Z,7.22
2023-01-29T05:23:53.169Z,5.57
2023-01-29T05:26:39.844Z,8.82
2023-01-29T05:29:08.115Z,8.52
2023-01-29T05:31:35.662Z,6.10
2023-01-29T05:34:03.271Z,6.25
2023-01-29T05:36:30.809Z,6.07
2023-01-29T05:38:58.398Z,5.55
2023-01-29T05:41:25.949Z,6.38
2023-01-29T05:43:53.656Z,6.72
2023-01-29T05:46:21.279Z,6.47
2023-01-29T05:48:48.850Z,6.63
2023-01-29T05:51:16.402Z,9.43
2023-01-29T05:53:43.986Z,8.73
2023-01-29T05:56:11.713Z,7.60
2023-01-29T05:58:39.450Z,6.50
2023-01-29T06:01:21.746Z,12.68
2023-01-29T06:03:49.567Z,7.88
2023-01-29T06:06:17.639Z,7.05
2023-01-29T06:08:45.211Z,6.95
2023-01-29T06:11:13.845Z,9.32
2023-01-29T06:13:41.580Z,5.75
2023-01-29T06:16:10.249Z,5.38
2023-01-29T06:18:38.645Z,7.13
2023-01-29T06:21:09.457Z,4.95
2023-01-29T06:23:37.123Z,7.00
2023-01-29T06:26:07.821Z,5.65
2023-01-29T06:28:35.691Z,5.90
2023-01-29T06:31:23.784Z,5.68
2023-01-29T06:33:52.486Z,7.78
2023-01-29T06:36:19.987Z,5.90
2023-01-29T06:38:47.704Z,4.68
2023-01-29T06:41:18.403Z,4.40
2023-01-29T06:43:46.573Z,8.93
2023-01-29T06:46:14.289Z,8.65
2023-01-29T06:48:41.960Z,6.88
2023-01-29T06:51:10.397Z,6.18
2023-01-29T06:53:39.264Z,5.97
2023-01-29T06:56:07.827Z,7.30
2023-01-29T06:58:39.006Z,6.60
2023-01-29T07:01:08.948Z,8.02
2023-01-29T07:03:37.086Z,6.72
2023-01-29T07:06:06.129Z,4.78
2023-01-29T07:08:37.246Z,6.32
2023-01-29T07:11:05.483Z,8.48
2023-01-29T07:13:33.770Z,6.07
2023-01-29T07:16:02.576Z,6.97
2023-01-29T07:18:31.433Z,7.90
2023-01-29T07:21:03.864Z,8.82
2023-01-29T07:23:31.441Z,7.45
2023-01-29T07:26:05.422Z,7.53
2023-01-29T07:28:37.080Z,6.65
2023-01-29T07:31:05.542Z,6.50
2023-01-29T07:33:34.130Z,7.68
2023-01-29T07:36:01.671Z,7.93
2023-01-29T07:38:29.284Z,9.32
2023-01-29T07:40:56.915Z,5.32
2023-01-29T07:43:25.119Z,7.25
2023-01-29T07:45:52.893Z,5.03
2023-01-29T07:48:20.426Z,6.45
2023-01-29T07:50:55.515Z,4.65
2023-01-29T07:53:23.125Z,11.48
2023-01-29T07:55:50.972Z,5.72
2023-01-29T07:58:18.745Z,4.97
2023-01-29T08:00:46.602Z,4.18
2023-01-29T08:03:17.313Z,7.97
2023-01-29T08:05:45.620Z,6.03
2023-01-29T08:08:13.444Z,5.35
2023-01-29T08:10:41.930Z,7.45
2023-01-29T08:13:09.922Z,5.20
2023-01-29T08:15:39.017Z,6.22
2023-01-29T08:18:07.312Z,4.03
2023-01-29T08:20:34.854Z,4.20
2023-01-29T08:23:06.008Z,4.60
2023-01-29T08:25:34.721Z,4.70
2023-01-29T08:28:02.974Z,6.13
2023-01-29T08:30:33.945Z,8.85
2023-01-29T08:33:04.125Z,2.97
2023-01-29T08:35:32.200Z,3.17
2023-01-29T08:38:02.153Z,4.97
2023-01-29T08:40:33.568Z,6.43
2023-01-29T08:43:07.852Z,6.22
2023-01-29T08:45:39.894Z,8.18
2023-01-29T08:48:08.123Z,3.38
2023-01-29T08:50:36.516Z,7.47
2023-01-29T08:53:07.907Z,5.63
2023-01-29T08:55:37.522Z,6.78
2023-01-29T08:58:09.034Z,5.95
2023-01-29T09:00:36.888Z,4.82
2023-01-29T09:03:07.643Z,6.63
2023-01-29T09:05:36.385Z,8.90
2023-01-29T09:08:04.375Z,3.72
2023-01-29T09:10:31.980Z,5.18
2023-01-29T09:12:59.497Z,4.90
2023-01-29T09:15:27.465Z,6.75
2023-01-29T09:17:54.930Z,4.80
2023-01-29T09:20:22.885Z,3.92
2023-01-29T09:22:53.551Z,6.43
2023-01-29T09:25:21.202Z,5.00
2023-01-29T09:27:48.710Z,5.47
2023-01-29T09:30:17.077Z,3.75
2023-01-29T09:32:53.326Z,5.00
2023-01-29T09:35:24.766Z,4.07
2023-01-29T09:37:52.726Z,6.28
2023-01-29T09:40:35.563Z,4.65
2023-01-29T09:43:10.445Z,6.40
2023-01-29T09:45:44.770Z,6.90
2023-01-29T09:48:13.505Z,6.32
2023-01-29T09:50:46.335Z,8.77
2023-01-29T09:53:26.771Z,7.90
2023-01-29T09:56:17.915Z,7.78
2023-01-29T09:58:45.518Z,5.75
2023-01-29T10:01:42.788Z,8.13
2023-01-29T10:04:38.166Z,8.48
2023-01-29T10:07:11.612Z,4.82
2023-01-29T10:09:48.093Z,7.68
2023-01-29T10:12:50.229Z,3.10
2023-01-29T10:15:42.406Z,6.30
2023-01-29T10:18:40.539Z,3.35
2023-01-29T10:21:44.742Z,3.97
2023-01-29T10:24:31.736Z,4.13
2023-01-29T10:27:00.994Z,3.92
2023-01-29T10:29:29.937Z,5.45
2023-01-29T10:32:05.966Z,1.67
2023-01-29T10:34:50.106Z,3.05
2023-01-29T10:37:40.398Z,3.53
2023-01-29T10:40:21.178Z,1.30
2023-01-29T10:42:52.844Z,1.48
2023-01-29T10:45:53.819Z,2.97
2023-01-29T10:48:40.064Z,2.85
2023-01-29T10:51:28.403Z,6.82
2023-01-29T10:54:37.225Z,9.27
2023-01-29T10:57:45.048Z,5.97
2023-01-29T11:00:18.288Z,10.57
2023-01-29T11:02:48.643Z,3.05
2023-01-29T11:05:43.403Z,3.22
2023-01-29T11:08:17.238Z,2.63
2023-01-29T11:10:59.805Z,7.40
2023-01-29T11:13:34.971Z,2.53
2023-01-29T11:16:08.188Z,4.50
2023-01-29T11:18:56.846Z,3.47
2023-01-29T11:21:26.593Z,3.22
2023-01-29T11:24:17.074Z,4.25
2023-01-29T11:26:48.323Z,2.83
2023-01-29T11:29:31.004Z,4.35
2023-01-29T11:32:00.727Z,2.33
2023-01-29T11:34:29.316Z,13.75
2023-01-29T11:37:14.988Z,8.20
2023-01-29T11:39:47.168Z,8.18
2023-01-29T11:42:23.294Z,6.35
2023-01-29T11:44:51.199Z,10.07
2023-01-29T11:47:24.024Z,10.85
2023-01-29T11:49:57.832Z,8.25
2023-01-29T11:52:35.023Z,2.95
2023-01-29T11:55:13.658Z,1.10
2023-01-29T11:57:43.449Z,2.85
2023-01-29T12:00:31.286Z,0.80
2023-01-29T12:03:04.625Z,3.95
2023-01-29T12:05:32.242Z,2.97
2023-01-29T12:08:02.151Z,2.80
2023-01-29T12:10:41.580Z,3.28
2023-01-29T12:13:21.173Z,1.25
2023-01-29T12:15:49.291Z,2.88
2023-01-29T12:18:17.024Z,2.08
2023-01-29T12:20:56.164Z,1.90
2023-01-29T12:23:38.380Z,2.60
2023-01-29T12:26:26.182Z,1.98
2023-01-29T12:29:19.892Z,2.35
2023-01-29T12:31:54.427Z,1.92
2023-01-29T12:34:34.434Z,1.20
2023-01-29T12:39:39.267Z,1.02
2023-01-29T12:42:20.665Z,1.38
2023-01-29T12:45:08.101Z,5.95
2023-01-29T12:47:44.156Z,1.58
2023-01-29T12:50:27.238Z,3.58
2023-01-29T12:53:01.944Z,1.38
2023-01-29T12:55:47.939Z,7.25
2023-01-29T12:58:21.464Z,3.08
2023-01-29T13:00:53.319Z,1.00
2023-01-29T13:03:32.865Z,1.02
2023-01-29T13:06:06.467Z,1.67
2023-01-29T13:08:51.636Z,2.67
2023-01-29T13:11:45.197Z,2.42
2023-01-29T13:14:18.959Z,1.70
2023-01-29T13:16:50.985Z,1.73
2023-01-29T13:19:28.229Z,0.98
2023-01-29T13:21:59.796Z,3.83
2023-01-29T13:24:38.607Z,2.03
2023-01-29T13:27:06.692Z,2.90
2023-01-29T13:29:37.662Z,3.42
2023-01-29T13:32:05.938Z,3.15
2023-01-29T13:35:04.984Z,2.65
2023-01-29T13:37:40.095Z,4.18
2023-01-29T13:40:18.817Z,1.10
2023-01-29T13:42:48.832Z,3.10
2023-01-29T13:48:21.813Z,2.47
2023-01-29T13:50:51.676Z,13.30
2023-01-29T13:53:40.129Z,2.78
2023-01-29T13:56:35.227Z,1.48
2023-01-29T13:59:05.482Z,1.63
2023-01-29T14:01:48.126Z,1.02
2023-01-29T14:04:36.087Z,1.50
2023-01-29T14:07:47.831Z,4.47
2023-01-29T14:10:18.949Z,2.90
2023-01-29T14:12:47.847Z,1.80
2023-01-29T14:15:19.009Z,3.60
2023-01-29T14:18:14.095Z,1.83
2023-01-29T14:21:04.329Z,13.73
2023-01-29T14:23:46.136Z,1.65
2023-01-29T14:26:34.407Z,2.88
2023-01-29T14:29:29.049Z,1.33
2023-01-29T14:32:19.605Z,1.17
2023-01-29T14:35:17.613Z,2.88
2023-01-29T14:37:49.202Z,1.88
2023-01-29T14:40:22.841Z,1.42
2023-01-29T14:43:19.880Z,1.10
2023-01-29T14:45:51.623Z,0.98
2023-01-29T14:48:38.576Z,2.85
2023-01-29T14:51:12.946Z,0.80
2023-01-29T14:54:18.967Z,2.58
2023-01-29T14:57:05.126Z,0.85
2023-01-29T14:59:46.185Z,0.57
2023-01-29T15:02:37.004Z,3.17
2023-01-29T15:05:11.425Z,1.92
2023-01-29T15:08:15.965Z,1.95
2023-01-29T15:10:48.579Z,0.52
2023-01-29T15:13:39.683Z,0.50
2023-01-29T15:16:18.886Z,1.95
2023-01-29T15:18:48.420Z,0.60
2023-01-29T15:21:18.686Z,3.55
2023-01-29T15:23:50.097Z,0.90
2023-01-29T15:26:21.005Z,2.00
2023-01-29T15:29:03.362Z,0.80
2023-01-29T15:31:32.324Z,1.05
2023-01-29T15:34:06.430Z,2.45
2023-01-29T15:36:34.381Z,0.98
2023-01-29T15:39:22.719Z,1.25
2023-01-29T15:42:04.219Z,0.98
2023-01-29T15:44:31.890Z,0.43
2023-01-29T15:47:01.995Z,2.60
2023-01-29T15:49:33.309Z,0.43
2023-01-29T15:52:07.817Z,1.77
2023-01-29T15:54:36.173Z,0.65
2023-01-29T15:57:04.188Z,1.38
2023-01-29T15:59:39.156Z,2.33
2023-01-29T16:02:34.603Z,2.40
2023-01-29T16:05:04.495Z,0.30
2023-01-29T16:07:32.695Z,2.08
2023-01-29T16:10:00.836Z,1.17
2023-01-29T16:12:28.991Z,0.47
2023-01-29T16:14:57.251Z,3.50
2023-01-29T16:17:38.069Z,1.13
2023-01-29T16:20:27.436Z,1.00
2023-01-29T16:22:55.206Z,4.30
2023-01-29T16:25:23.962Z,0.55
2023-01-29T16:27:52.117Z,0.57
2023-01-29T16:30:19.824Z,1.20
2023-01-29T16:32:47.429Z,0.85
2023-01-29T16:35:17.242Z,0.65
2023-01-29T16:37:50.657Z,1.90
2023-01-29T16:40:33.071Z,1.70
2023-01-29T16:43:19.292Z,1.92
2023-01-29T16:46:15.889Z,0.88
2023-01-29T16:48:43.969Z,3.33
2023-01-29T16:51:18.139Z,7.15
2023-01-29T16:54:07.143Z,5.85
2023-01-29T16:56:35.315Z,4.30
2023-01-29T16:59:05.562Z,2.03
2023-01-29T17:01:36.072Z,1.17
2023-01-29T17:04:23.934Z,3.25
2023-01-29T17:07:00.815Z,4.07
2023-01-29T17:09:34.939Z,1.77
2023-01-29T17:12:06.744Z,4.07
2023-01-29T17:14:35.999Z,7.82
2023-01-29T17:17:06.236Z,4.50
2023-01-29T17:19:34.034Z,1.77
2023-01-29T17:22:04.732Z,2.72
2023-01-29T17:24:32.321Z,1.42
2023-01-29T17:27:01.582Z,1.10
2023-01-29T17:29:31.193Z,1.85
2023-01-29T17:32:00.316Z,2.20
2023-01-29T17:34:28.369Z,3.03
2023-01-29T17:36:57.244Z,2.45
2023-01-29T17:39:25.672Z,3.53
2023-01-29T17:41:58.361Z,4.25
2023-01-29T17:44:26.233Z,5.72
2023-01-29T17:46:54.126Z,2.10
2023-01-29T17:49:30.167Z,3.03
2023-01-29T17:51:57.895Z,3.08
2023-01-29T17:54:25.819Z,2.97
2023-01-29T17:56:54.285Z,3.92
2023-01-29T17:59:30.100Z,3.78
2023-01-29T18:01:57.818Z,3.55
2023-01-29T18:04:26.285Z,4.07
2023-01-29T18:06:55.119Z,6.13
2023-01-29T18:09:22.780Z,3.65
2023-01-29T18:11:51.181Z,5.32
2023-01-29T18:14:19.107Z,2.42
2023-01-29T18:16:46.985Z,1.75
2023-01-29T18:19:18.927Z,3.72
2023-01-29T18:21:46.865Z,2.03
2023-01-29T18:24:14.441Z,1.70
2023-01-29T18:26:42.459Z,2.72
2023-01-29T18:29:10.085Z,3.33
2023-01-29T18:31:37.879Z,3.65
2023-01-29T18:34:05.483Z,3.20
2023-01-29T18:36:33.102Z,6.55
2023-01-29T18:39:00.642Z,2.55
2023-01-29T18:41:28.255Z,2.72
2023-01-29T18:43:55.946Z,1.70
2023-01-29T18:46:24.366Z,2.40
2023-01-29T18:48:52.038Z,3.40
2023-01-29T18:51:19.784Z,6.07
2023-01-29T18:53:53.509Z,1.45
2023-01-29T18:56:21.191Z,4.03
2023-01-29T18:58:52.245Z,5.35
2023-01-29T19:01:24.157Z,5.53
2023-01-29T19:03:52.225Z,2.33
2023-01-29T19:06:19.998Z,3.00
2023-01-29T19:08:47.962Z,6.15
2023-01-29T19:11:15.653Z,3.97
2023-01-29T19:13:43.434Z,4.57
2023-01-29T19:16:13.571Z,2.97
2023-01-29T19:18:41.355Z,4.68
2023-01-29T19:21:11.702Z,4.30
2023-01-29T19:23:40.095Z,1.73
2023-01-29T19:26:07.863Z,2.70
2023-01-29T19:28:35.785Z,6.30
2023-01-29T19:31:03.641Z,3.30
2023-01-29T19:33:31.337Z,3.17
2023-01-29T19:35:59.742Z,4.78
2023-01-29T19:38:27.888Z,6.40
2023-01-29T19:40:55.526Z,3.00
2023-01-29T19:43:23.184Z,4.10
2023-01-29T19:45:57.731Z,8.50
2023-01-29T19:48:26.473Z,6.53
2023-01-29T19:50:55.033Z,5.32
2023-01-29T19:53:23.142Z,5.18
2023-01-29T19:56:02.251Z,3.67
2023-01-29T19:58:30.594Z,4.20
2023-01-29T20:01:03.614Z,8.60
2023-01-29T20:03:31.757Z,5.85
2023-01-29T20:06:03.815Z,5.40
2023-01-29T20:08:32.664Z,2.95
2023-01-29T20:11:00.462Z,2.67
2023-01-29T20:13:28.777Z,8.35
2023-01-29T20:15:56.526Z,6.00
2023-01-29T20:18:24.531Z,5.50
2023-01-29T20:20:53.134Z,7.10
2023-01-29T20:23:36.693Z,6.13
2023-01-29T20:26:07.060Z,8.65
2023-01-29T20:28:35.096Z,7.87
2023-01-29T20:31:03.103Z,13.00
2023-01-29T20:33:31.893Z,12.50
2023-01-29T20:36:02.312Z,9.10
2023-01-29T20:38:34.087Z,7.25
2023-01-29T20:41:06.766Z,5.15
2023-01-29T20:43:34.889Z,10.80
2023-01-29T20:46:02.827Z,7.95
2023-01-29T20:48:31.366Z,2.83
2023-01-29T20:51:08.001Z,2.70
2023-01-29T20:53:36.842Z,5.50
2023-01-29T20:56:05.311Z,4.90
2023-01-29T20:58:33.222Z,5.20
2023-01-29T21:01:01.305Z,4.72
2023-01-29T21:03:28.854Z,3.20
2023-01-29T21:05:59.175Z,2.88
2023-01-29T21:08:26.863Z,5.63
2023-01-29T21:10:54.432Z,6.82
2023-01-29T21:13:22.090Z,5.18
2023-01-29T21:15:50.908Z,9.18
2023-01-29T21:18:18.712Z,5.13
2023-01-29T21:20:46.348Z,6.10
2023-01-29T21:23:16.226Z,2.60
2023-01-29T21:28:13.075Z,3.20
2023-01-29T21:30:40.804Z,5.07
2023-01-29T21:33:08.537Z,6.72
2023-01-29T21:38:05.977Z,2.95
2023-01-29T21:40:33.601Z,3.55
2023-01-29T21:43:13.010Z,5.18
2023-01-29T21:45:41.410Z,3.35
2023-01-29T21:48:10.671Z,5.32
2023-01-29T21:50:38.909Z,6.32
2023-01-29T21:53:06.478Z,9.55
2023-01-29T21:55:34.096Z,4.72
2023-01-29T21:58:01.980Z,5.28
2023-01-29T22:00:29.636Z,4.40
2023-01-29T22:02:57.270Z,3.80
2023-01-29T22:05:26.537Z,4.95
2023-01-29T22:07:54.113Z,4.10
2023-01-29T22:10:22.405Z,3.65
2023-01-29T22:12:50.149Z,8.02
2023-01-29T22:15:17.827Z,7.90
2023-01-29T22:17:45.509Z,2.83
2023-01-29T22:20:14.288Z,5.72
2023-01-29T22:22:44.742Z,7.13
2023-01-29T22:25:12.663Z,3.20
2023-01-29T22:27:40.213Z,2.72
2023-01-29T22:30:08.601Z,2.72
2023-01-29T22:32:36.186Z,2.75
2023-01-29T22:35:03.943Z,3.85
2023-01-29T22:37:31.427Z,1.20
2023-01-29T22:39:58.949Z,8.40
2023-01-29T22:42:27.850Z,3.28
2023-01-29T22:44:55.373Z,8.02
2023-01-29T22:47:22.883Z,1.67
2023-01-29T22:49:52.373Z,3.25
2023-01-29T22:52:22.839Z,5.53
2023-01-29T22:54:51.528Z,3.20
2023-01-29T22:57:19.808Z,2.97
2023-01-29T22:59:47.612Z,1.42
2023-01-29T23:02:15.272Z,0.90
2023-01-29T23:04:45.534Z,5.50
2023-01-29T23:07:13.260Z,3.85
2023-01-29T23:09:40.816Z,5.13
2023-01-29T23:12:08.355Z,3.05
2023-01-29T23:14:35.969Z,1.88
2023-01-29T23:17:03.493Z,5.22
2023-01-29T23:19:31.162Z,10.93
2023-01-29T23:21:58.790Z,9.57
2023-01-29T23:24:26.386Z,9.48
2023-01-29T23:27:12.473Z,6.90
2023-01-29T23:29:40.618Z,12.88
2023-01-29T23:32:08.265Z,17.60
2023-01-29T23:34:36.343Z,10.02
2023-01-29T23:37:04.288Z,10.88
2023-01-29T23:39:31.965Z,10.65
2023-01-29T23:41:59.920Z,9.90
2023-01-29T23:44:27.741Z,21.10
2023-01-29T23:46:55.276Z,16.25
2023-01-29T23:49:23.017Z,14.02
2023-01-29T23:51:50.896Z,17.52
2023-01-29T23:54:18.821Z,9.18
2023-01-29T23:56:46.628Z,10.45
2023-01-29T23:59:15.126Z,23.00
